createdAt,value
2023-03-29T00:01:00.152Z,5.10
2023-03-29T00:03:27.497Z,5.09
2023-03-29T00:06:02.897Z,5.07
2023-03-29T00:08:31.469Z,5.08
2023-03-29T00:10:59.369Z,5.06
2023-03-29T00:13:26.906Z,5.05
2023-03-29T00:15:54.203Z,5.05
2023-03-29T00:18:20.948Z,5.03
2023-03-29T00:20:54.074Z,5.01
2023-03-29T00:23:22.631Z,5.02
2023-03-29T00:25:49.203Z,5.03
2023-03-29T00:28:15.835Z,5.06
2023-03-29T00:30:42.537Z,5.01
2023-03-29T00:33:09.258Z,4.98
2023-03-29T00:35:37.733Z,4.99
2023-03-29T00:38:06.225Z,4.98
2023-03-29T00:40:33.442Z,4.98
2023-03-29T00:43:00.651Z,4.98
2023-03-29T00:45:30.538Z,4.99
2023-03-29T00:48:07.679Z,4.99
2023-03-29T00:50:43.590Z,4.97
2023-03-29T00:53:13.063Z,4.96
2023-03-29T00:55:43.013Z,4.94
2023-03-29T00:58:13.568Z,4.94
2023-03-29T01:00:42.165Z,4.91
2023-03-29T01:03:13.969Z,4.91
2023-03-29T01:05:44.136Z,4.91
2023-03-29T01:08:25.691Z,4.90
2023-03-29T01:11:14.955Z,4.90
2023-03-29T01:13:44.722Z,4.90
2023-03-29T01:16:12.363Z,4.89
2023-03-29T01:18:39.816Z,4.88
2023-03-29T01:21:10.187Z,4.86
2023-03-29T01:23:58.336Z,4.84
2023-03-29T01:26:37.259Z,4.81
2023-03-29T01:29:08.067Z,4.77
2023-03-29T01:31:37.239Z,4.76
2023-03-29T01:34:18.171Z,4.76
2023-03-29T01:36:50.911Z,4.78
2023-03-29T01:39:18.506Z,4.76
2023-03-29T01:41:58.396Z,4.78
2023-03-29T01:44:30.374Z,4.80
2023-03-29T01:47:23.475Z,4.80
2023-03-29T01:49:59.237Z,4.85
2023-03-29T01:52:30.432Z,4.87
2023-03-29T01:55:02.032Z,4.86
2023-03-29T01:57:31.225Z,4.85
2023-03-29T01:59:58.918Z,4.85
2023-03-29T02:02:27.821Z,4.84
2023-03-29T02:04:56.151Z,4.82
2023-03-29T02:07:26.118Z,4.81
2023-03-29T02:09:53.751Z,4.77
2023-03-29T02:12:20.789Z,4.80
2023-03-29T02:14:47.576Z,4.83
2023-03-29T02:17:18.404Z,4.78
2023-03-29T02:19:50.136Z,4.78
2023-03-29T02:22:18.571Z,4.80
2023-03-29T02:24:46.754Z,4.81
2023-03-29T02:27:13.295Z,4.84
2023-03-29T02:29:39.849Z,4.86
2023-03-29T02:32:10.069Z,4.89
2023-03-29T02:34:43.487Z,4.92
2023-03-29T02:37:13.512Z,4.91
2023-03-29T02:42:08.372Z,4.93
2023-03-29T02:44:37.621Z,4.94
2023-03-29T02:47:25.074Z,4.95
2023-03-29T02:49:51.738Z,4.98
2023-03-29T02:52:22.182Z,5.00
2023-03-29T02:54:50.356Z,5.03
2023-03-29T02:57:16.969Z,5.06
2023-03-29T02:59:44.989Z,5.05
2023-03-29T03:02:11.882Z,5.07
2023-03-29T03:04:38.517Z,5.07
2023-03-29T03:07:05.372Z,5.10
2023-03-29T03:09:31.957Z,5.12
2023-03-29T03:11:58.569Z,5.15
2023-03-29T03:14:25.129Z,5.19
2023-03-29T03:16:52.899Z,5.20
2023-03-29T03:19:19.907Z,5.19
2023-03-29T03:21:47.062Z,5.23
2023-03-29T03:24:13.669Z,5.25
2023-03-29T03:26:40.315Z,5.27
2023-03-29T03:29:06.956Z,5.30
2023-03-29T03:31:33.689Z,5.31
2023-03-29T03:34:00.343Z,5.32
2023-03-29T03:36:29.086Z,5.34
2023-03-29T03:38:55.680Z,5.37
2023-03-29T03:41:22.750Z,5.41
2023-03-29T03:43:49.621Z,5.43
2023-03-29T03:46:17.224Z,5.43
2023-03-29T03:48:44.786Z,5.45
2023-03-29T03:51:11.699Z,5.46
2023-03-29T03:53:38.497Z,5.47
2023-03-29T03:56:09.252Z,5.45
2023-03-29T03:58:36.638Z,5.48
2023-03-29T04:01:04.215Z,5.51
2023-03-29T04:03:31.725Z,5.55
2023-03-29T04:06:02.182Z,5.54
2023-03-29T04:08:28.742Z,5.57
2023-03-29T04:10:56.108Z,5.59
2023-03-29T04:13:22.894Z,5.59
2023-03-29T04:15:58.235Z,5.62
2023-03-29T04:18:27.719Z,5.65
2023-03-29T04:20:54.469Z,5.70
2023-03-29T04:23:21.061Z,5.73
2023-03-29T04:25:47.711Z,5.74
2023-03-29T04:28:14.328Z,5.73
2023-03-29T04:30:40.995Z,5.72
2023-03-29T04:33:07.760Z,5.74
2023-03-29T04:35:34.551Z,5.73
2023-03-29T04:38:01.112Z,5.72
2023-03-29T04:40:28.968Z,5.67
2023-03-29T04:42:55.534Z,5.67
2023-03-29T04:45:22.158Z,5.68
2023-03-29T04:47:49.556Z,5.68
2023-03-29T04:50:16.198Z,5.71
2023-03-29T04:52:45.358Z,5.74
2023-03-29T04:55:12.401Z,5.81
2023-03-29T04:57:39.200Z,5.86
2023-03-29T05:00:14.553Z,5.92
2023-03-29T05:02:43.072Z,5.98
2023-03-29T05:05:10.526Z,6.05
2023-03-29T05:07:37.142Z,6.09
2023-03-29T05:10:04.576Z,6.14
2023-03-29T05:12:31.122Z,6.15
2023-03-29T05:14:57.690Z,6.15
2023-03-29T05:17:26.799Z,6.20
2023-03-29T05:19:54.313Z,6.24
2023-03-29T05:22:21.728Z,6.22
2023-03-29T05:24:48.466Z,6.23
2023-03-29T05:27:15.093Z,6.20
2023-03-29T05:29:41.864Z,6.21
2023-03-29T05:32:08.530Z,6.27
2023-03-29T05:34:35.360Z,6.34
2023-03-29T05:37:01.899Z,6.40
2023-03-29T05:39:28.426Z,6.47
2023-03-29T05:41:55.228Z,6.54
2023-03-29T05:44:21.845Z,6.60
2023-03-29T05:46:48.373Z,6.64
2023-03-29T05:49:15.007Z,6.67
2023-03-29T05:51:42.774Z,6.73
2023-03-29T05:54:09.337Z,6.76
2023-03-29T05:56:35.952Z,6.80
2023-03-29T05:59:02.523Z,6.85
2023-03-29T06:01:29.151Z,6.89
2023-03-29T06:03:57.417Z,6.94
2023-03-29T06:06:24.020Z,6.92
2023-03-29T06:08:50.696Z,6.89
2023-03-29T06:11:17.663Z,6.93
2023-03-29T06:13:44.282Z,6.99
2023-03-29T06:16:11.133Z,7.05
2023-03-29T06:18:40.320Z,7.10
2023-03-29T06:21:09.298Z,7.10
2023-03-29T06:23:36.500Z,7.11
2023-03-29T06:26:03.698Z,7.12
2023-03-29T06:28:30.654Z,7.13
2023-03-29T06:31:02.849Z,7.08
2023-03-29T06:33:30.659Z,7.10
2023-03-29T06:35:57.825Z,7.14
2023-03-29T06:38:26.324Z,7.16
2023-03-29T06:40:59.846Z,7.17
2023-03-29T06:43:27.232Z,7.16
2023-03-29T06:45:54.345Z,7.14
2023-03-29T06:48:21.401Z,7.07
2023-03-29T06:50:48.804Z,7.04
2023-03-29T06:53:15.862Z,7.01
2023-03-29T06:55:42.693Z,6.98
2023-03-29T06:58:09.395Z,6.91
2023-03-29T07:00:39.047Z,6.91
2023-03-29T07:03:07.302Z,6.90
2023-03-29T07:05:36.574Z,6.85
2023-03-29T07:08:06.063Z,6.88
2023-03-29T07:10:38.250Z,6.89
2023-03-29T07:13:08.862Z,6.87
2023-03-29T07:15:36.058Z,6.84
2023-03-29T07:18:04.788Z,6.80
2023-03-29T07:20:32.140Z,6.79
2023-03-29T07:22:58.733Z,6.74
2023-03-29T07:25:25.997Z,6.69
2023-03-29T07:27:53.077Z,6.69
2023-03-29T07:30:21.462Z,6.71
2023-03-29T07:32:48.177Z,6.69
2023-03-29T07:35:15.466Z,6.68
2023-03-29T07:37:44.476Z,6.68
2023-03-29T07:40:16.144Z,6.69
2023-03-29T07:42:43.983Z,6.78
2023-03-29T07:45:11.389Z,6.82
2023-03-29T07:47:38.448Z,6.86
2023-03-29T07:50:06.013Z,6.92
2023-03-29T07:52:32.887Z,6.98
2023-03-29T07:54:59.554Z,7.03
2023-03-29T07:57:26.824Z,7.06
2023-03-29T07:59:54.146Z,7.10
2023-03-29T08:02:21.274Z,7.07
2023-03-29T08:04:47.909Z,7.05
2023-03-29T08:07:17.642Z,7.04
2023-03-29T08:09:45.702Z,7.08
2023-03-29T08:12:12.705Z,7.10
2023-03-29T08:14:39.382Z,7.15
2023-03-29T08:17:06.308Z,7.19
2023-03-29T08:19:32.993Z,7.23
2023-03-29T08:22:00.620Z,7.28
2023-03-29T08:24:27.432Z,7.33
2023-03-29T08:26:54.048Z,7.39
2023-03-29T08:29:20.711Z,7.43
2023-03-29T08:31:47.324Z,7.48
2023-03-29T08:34:14.201Z,7.52
2023-03-29T08:36:41.362Z,7.58
2023-03-29T08:39:08.032Z,7.60
2023-03-29T08:41:54.876Z,7.57
2023-03-29T08:44:21.579Z,7.47
2023-03-29T08:46:48.284Z,7.36
2023-03-29T08:49:15.273Z,7.28
2023-03-29T08:52:02.581Z,7.22
2023-03-29T08:54:41.987Z,7.18
2023-03-29T08:57:14.478Z,7.16
2023-03-29T08:59:41.676Z,7.13
2023-03-29T09:02:15.077Z,7.11
2023-03-29T09:04:43.930Z,7.16
2023-03-29T09:07:10.907Z,7.22
2023-03-29T09:09:38.332Z,7.21
2023-03-29T09:12:19.915Z,7.22
2023-03-29T09:14:49.502Z,7.18
2023-03-29T09:17:22.024Z,7.19
2023-03-29T09:19:51.760Z,7.16
2023-03-29T09:22:28.046Z,7.16
2023-03-29T09:25:14.716Z,7.11
2023-03-29T09:27:58.358Z,7.04
2023-03-29T09:30:27.948Z,7.02
2023-03-29T09:32:57.538Z,6.97
2023-03-29T09:35:30.396Z,6.92
2023-03-29T09:37:57.774Z,6.82
2023-03-29T09:40:33.093Z,6.75
2023-03-29T09:43:01.007Z,6.72
2023-03-29T09:45:28.068Z,6.68
2023-03-29T09:48:00.219Z,6.63
2023-03-29T09:50:32.273Z,6.61
2023-03-29T09:52:59.184Z,6.59
2023-03-29T09:55:27.708Z,6.59
2023-03-29T09:57:57.316Z,6.57
2023-03-29T10:00:24.753Z,6.55
2023-03-29T10:02:55.516Z,6.52
2023-03-29T10:05:24.415Z,6.50
2023-03-29T10:07:52.574Z,6.52
2023-03-29T10:10:22.979Z,6.53
2023-03-29T10:12:51.009Z,6.51
2023-03-29T10:15:29.327Z,6.53
2023-03-29T10:18:01.002Z,6.52
2023-03-29T10:20:28.229Z,6.52
2023-03-29T10:22:56.410Z,6.55
2023-03-29T10:25:26.124Z,6.55
2023-03-29T10:27:55.806Z,6.50
2023-03-29T10:30:24.083Z,6.51
2023-03-29T10:32:58.894Z,6.50
2023-03-29T10:35:33.431Z,6.50
2023-03-29T10:38:03.494Z,6.49
2023-03-29T10:40:41.464Z,6.46
2023-03-29T10:43:12.552Z,6.44
2023-03-29T10:45:39.402Z,6.41
2023-03-29T10:48:09.726Z,6.42
2023-03-29T10:50:38.254Z,6.41
2023-03-29T10:53:10.913Z,6.42
2023-03-29T10:55:43.926Z,6.42
2023-03-29T10:58:16.532Z,6.44
2023-03-29T11:00:54.927Z,6.45
2023-03-29T11:03:43.437Z,6.47
2023-03-29T11:06:11.200Z,6.48
2023-03-29T11:08:53.662Z,6.46
2023-03-29T11:11:41.181Z,6.43
2023-03-29T11:14:26.378Z,6.39
2023-03-29T11:17:03.535Z,6.37
2023-03-29T11:19:48.818Z,6.33
2023-03-29T11:22:21.613Z,6.32
2023-03-29T11:25:03.363Z,6.31
2023-03-29T11:27:46.180Z,6.30
2023-03-29T11:30:18.804Z,6.28
2023-03-29T11:32:51.651Z,6.28
2023-03-29T11:35:35.466Z,6.28
2023-03-29T11:38:08.293Z,6.27
2023-03-29T11:40:53.595Z,6.28
2023-03-29T11:43:23.329Z,6.27
2023-03-29T11:45:55.999Z,6.29
2023-03-29T11:48:26.085Z,6.30
2023-03-29T11:51:18.760Z,6.29
2023-03-29T11:53:59.793Z,6.28
2023-03-29T11:56:29.814Z,6.29
2023-03-29T11:58:59.685Z,6.28
2023-03-29T12:01:33.495Z,6.32
2023-03-29T12:04:03.145Z,6.31
2023-03-29T12:06:29.815Z,6.31
2023-03-29T12:09:01.544Z,6.31
2023-03-29T12:11:36.318Z,6.33
2023-03-29T12:14:03.621Z,6.32
2023-03-29T12:16:34.487Z,6.33
2023-03-29T12:19:16.537Z,6.33
2023-03-29T12:21:44.584Z,6.33
2023-03-29T12:24:12.876Z,6.30
2023-03-29T12:26:50.215Z,6.28
2023-03-29T12:29:16.916Z,6.25
2023-03-29T12:31:46.637Z,6.26
2023-03-29T12:34:22.873Z,6.23
2023-03-29T12:37:00.502Z,6.17
2023-03-29T12:39:27.786Z,6.14
2023-03-29T12:42:04.618Z,6.10
2023-03-29T12:44:32.648Z,6.08
2023-03-29T12:47:00.384Z,6.08
2023-03-29T12:49:29.665Z,6.02
2023-03-29T12:51:58.655Z,5.99
2023-03-29T12:54:28.804Z,5.96
2023-03-29T12:56:58.404Z,5.96
2023-03-29T12:59:25.748Z,5.92
2023-03-29T13:01:57.727Z,5.92
2023-03-29T13:04:36.313Z,5.95
2023-03-29T13:07:04.035Z,5.98
2023-03-29T13:09:37.828Z,5.95
2023-03-29T13:12:04.391Z,5.99
2023-03-29T13:14:33.530Z,5.96
2023-03-29T13:17:17.849Z,5.93
2023-03-29T13:20:09.426Z,5.90
2023-03-29T13:22:58.804Z,5.90
2023-03-29T13:25:48.300Z,5.90
2023-03-29T13:28:17.685Z,5.86
2023-03-29T13:30:59.710Z,5.82
2023-03-29T13:33:33.523Z,5.84
2023-03-29T13:36:04.074Z,5.84
2023-03-29T13:38:35.449Z,5.84
2023-03-29T13:41:07.287Z,5.82
2023-03-29T13:43:35.876Z,5.80
2023-03-29T13:46:05.845Z,5.82
2023-03-29T13:48:48.926Z,5.88
2023-03-29T13:51:18.555Z,5.86
2023-03-29T13:53:57.182Z,5.88
2023-03-29T13:56:37.370Z,5.88
2023-03-29T13:59:12.170Z,5.86
2023-03-29T14:01:58.015Z,5.89
2023-03-29T14:04:26.656Z,5.86
2023-03-29T14:06:55.320Z,5.85
2023-03-29T14:09:23.949Z,5.83
2023-03-29T14:11:51.218Z,5.85
2023-03-29T14:14:21.695Z,5.85
2023-03-29T14:16:48.458Z,5.87
2023-03-29T14:19:17.427Z,5.87
2023-03-29T14:21:44.146Z,5.85
2023-03-29T14:24:17.692Z,5.88
2023-03-29T14:26:46.834Z,5.89
2023-03-29T14:29:13.374Z,5.92
2023-03-29T14:31:41.022Z,5.95
2023-03-29T14:34:12.249Z,5.93
2023-03-29T14:36:39.292Z,5.97
2023-03-29T14:39:10.306Z,5.97
2023-03-29T14:41:38.129Z,5.97
2023-03-29T14:44:06.850Z,5.95
2023-03-29T14:46:34.184Z,5.95
2023-03-29T14:49:02.328Z,5.97
2023-03-29T14:51:31.063Z,5.97
2023-03-29T14:53:59.022Z,5.97
2023-03-29T14:56:27.075Z,5.96
2023-03-29T14:58:55.015Z,6.00
2023-03-29T15:01:23.584Z,5.98
2023-03-29T15:03:54.983Z,5.99
2023-03-29T15:06:22.924Z,6.02
2023-03-29T15:09:03.778Z,6.04
2023-03-29T15:11:33.006Z,6.01
2023-03-29T15:14:14.079Z,6.05
2023-03-29T15:16:42.436Z,6.05
2023-03-29T15:19:16.343Z,6.05
2023-03-29T15:21:43.363Z,6.05
2023-03-29T15:24:29.895Z,6.08
2023-03-29T15:26:59.390Z,6.09
2023-03-29T15:29:33.482Z,6.11
2023-03-29T15:32:00.344Z,6.05
2023-03-29T15:34:28.486Z,6.03
2023-03-29T15:36:57.335Z,6.02
2023-03-29T15:39:24.459Z,6.01
2023-03-29T15:41:52.386Z,6.00
2023-03-29T15:44:29.547Z,6.02
2023-03-29T15:46:57.793Z,6.00
2023-03-29T15:49:25.157Z,6.00
2023-03-29T15:51:55.699Z,6.01
2023-03-29T15:54:24.427Z,6.03
2023-03-29T15:56:52.937Z,6.04
2023-03-29T15:59:19.711Z,6.05
2023-03-29T16:01:47.011Z,6.04
2023-03-29T16:04:15.484Z,6.05
2023-03-29T16:06:42.936Z,6.07
2023-03-29T16:09:11.897Z,6.07
2023-03-29T16:11:39.464Z,6.12
2023-03-29T16:14:16.568Z,6.12
2023-03-29T16:16:43.199Z,6.12
2023-03-29T16:19:09.983Z,6.14
2023-03-29T16:21:36.839Z,6.14
2023-03-29T16:24:04.054Z,6.16
2023-03-29T16:26:31.692Z,6.18
2023-03-29T16:28:58.399Z,6.17
2023-03-29T16:31:27.042Z,6.18
2023-03-29T16:33:54.105Z,6.21
2023-03-29T16:36:20.895Z,6.22
2023-03-29T16:38:47.578Z,6.21
2023-03-29T16:41:15.060Z,6.22
2023-03-29T16:43:42.031Z,6.20
2023-03-29T16:46:10.192Z,6.23
2023-03-29T16:48:37.330Z,6.21
2023-03-29T16:51:04.435Z,6.22
2023-03-29T16:53:31.311Z,6.23
2023-03-29T16:55:58.123Z,6.25
2023-03-29T16:58:25.001Z,6.28
2023-03-29T17:00:56.238Z,6.30
2023-03-29T17:03:23.556Z,6.36
2023-03-29T17:05:52.068Z,6.33
2023-03-29T17:08:19.759Z,6.31
2023-03-29T17:10:46.810Z,6.34
2023-03-29T17:13:13.477Z,6.33
2023-03-29T17:15:40.154Z,6.31
2023-03-29T17:18:07.192Z,6.31
2023-03-29T17:20:33.857Z,6.30
2023-03-29T17:23:00.662Z,6.33
2023-03-29T17:40:14.166Z,6.33
2023-03-29T17:42:41.419Z,6.32
2023-03-29T17:45:08.690Z,6.31
2023-03-29T17:47:35.457Z,6.33
2023-03-29T17:50:02.132Z,6.37
2023-03-29T17:52:28.680Z,6.37
2023-03-29T17:54:55.520Z,6.37
2023-03-29T17:57:22.150Z,6.36
2023-03-29T17:59:48.829Z,6.36
2023-03-29T18:02:19.860Z,6.34
2023-03-29T18:04:46.556Z,6.38
2023-03-29T18:07:13.406Z,6.38
2023-03-29T18:09:43.208Z,6.38
2023-03-29T18:12:09.888Z,6.37
2023-03-29T18:14:36.736Z,6.36
2023-03-29T18:17:04.224Z,6.36
2023-03-29T18:19:31.071Z,6.38
2023-03-29T18:21:57.928Z,6.34
2023-03-29T18:24:24.599Z,6.35
2023-03-29T18:26:51.485Z,6.31
2023-03-29T18:29:18.273Z,6.34
2023-03-29T18:31:46.463Z,6.37
2023-03-29T18:34:13.256Z,6.38
2023-03-29T18:36:40.451Z,6.36
2023-03-29T18:39:07.388Z,6.36
2023-03-29T18:41:35.740Z,6.38
2023-03-29T18:44:02.517Z,6.40
2023-03-29T18:46:31.374Z,6.39
2023-03-29T18:48:58.509Z,6.38
2023-03-29T18:51:28.775Z,6.35
2023-03-29T18:53:56.182Z,6.29
2023-03-29T18:56:23.551Z,6.26
2023-03-29T18:58:50.793Z,6.25
2023-03-29T19:01:18.260Z,6.23
2023-03-29T19:03:45.205Z,6.22
2023-03-29T19:06:12.376Z,6.18
2023-03-29T19:08:41.472Z,6.15
2023-03-29T19:11:09.946Z,6.15
2023-03-29T19:13:36.994Z,6.14
2023-03-29T19:16:04.792Z,6.15
2023-03-29T19:18:33.008Z,6.13
2023-03-29T19:20:59.803Z,6.13
2023-03-29T19:23:28.333Z,6.16
2023-03-29T19:25:56.629Z,6.18
2023-03-29T19:28:23.843Z,6.20
2023-03-29T19:30:50.869Z,6.15
2023-03-29T19:33:17.749Z,6.13
2023-03-29T19:35:44.478Z,6.15
2023-03-29T19:38:11.168Z,6.17
2023-03-29T19:40:37.791Z,6.16
2023-03-29T19:43:05.013Z,6.14
2023-03-29T19:45:31.700Z,6.13
2023-03-29T19:48:02.994Z,6.12
2023-03-29T19:50:31.700Z,6.10
2023-03-29T19:52:58.605Z,6.10
2023-03-29T19:55:25.994Z,6.08
2023-03-29T19:57:52.769Z,6.05
2023-03-29T20:00:24.549Z,6.03
2023-03-29T20:02:52.423Z,6.04
2023-03-29T20:05:20.202Z,6.04
2023-03-29T20:07:47.017Z,6.04
2023-03-29T20:10:13.722Z,6.03
2023-03-29T20:12:40.372Z,6.05
2023-03-29T20:15:07.586Z,6.06
2023-03-29T20:17:35.603Z,6.05
2023-03-29T20:20:04.613Z,6.06
2023-03-29T20:22:33.761Z,6.05
2023-03-29T20:25:00.355Z,6.08
2023-03-29T20:27:29.213Z,6.05
2023-03-29T20:29:56.094Z,6.06
2023-03-29T20:32:22.836Z,6.03
2023-03-29T20:34:49.717Z,6.02
2023-03-29T20:37:16.302Z,6.02
2023-03-29T20:39:43.131Z,6.04
2023-03-29T20:42:09.727Z,6.02
2023-03-29T20:44:36.662Z,6.02
2023-03-29T20:47:04.205Z,6.00
2023-03-29T20:49:36.954Z,6.00
2023-03-29T20:52:08.403Z,6.01
2023-03-29T20:54:35.802Z,6.00
2023-03-29T20:57:02.717Z,5.98
2023-03-29T20:59:29.803Z,5.99
2023-03-29T21:01:56.481Z,6.00
2023-03-29T21:04:23.333Z,5.98
2023-03-29T21:06:50.269Z,6.04
2023-03-29T21:09:17.446Z,6.06
2023-03-29T21:11:44.025Z,6.06
2023-03-29T21:14:10.855Z,6.02
2023-03-29T21:16:41.636Z,6.02
2023-03-29T21:19:08.997Z,6.01
2023-03-29T21:21:36.112Z,5.97
2023-03-29T21:24:03.706Z,6.00
2023-03-29T21:26:30.557Z,5.98
2023-03-29T21:28:57.160Z,5.96
2023-03-29T21:31:23.913Z,5.96
2023-03-29T21:33:50.711Z,5.98
2023-03-29T21:36:17.357Z,5.98
2023-03-29T21:38:43.951Z,5.99
2023-03-29T21:41:12.048Z,6.00
2023-03-29T21:43:39.065Z,5.96
2023-03-29T21:46:05.827Z,5.92
2023-03-29T21:48:32.524Z,5.93
2023-03-29T21:50:59.314Z,5.90
2023-03-29T21:53:26.156Z,5.91
2023-03-29T21:55:52.860Z,5.95
2023-03-29T21:58:19.521Z,5.98
2023-03-29T22:00:46.707Z,5.95
2023-03-29T22:03:14.229Z,6.00
2023-03-29T22:05:41.437Z,6.01
2023-03-29T22:08:10.544Z,6.00
2023-03-29T22:10:37.564Z,5.98
2023-03-29T22:13:04.167Z,5.99
2023-03-29T22:15:35.494Z,5.99
2023-03-29T22:18:02.759Z,6.00
2023-03-29T22:20:29.360Z,6.02
2023-03-29T22:22:55.876Z,6.01
2023-03-29T22:25:23.273Z,6.03
2023-03-29T22:27:49.808Z,6.05
2023-03-29T22:30:17.357Z,6.06
2023-03-29T22:32:43.957Z,6.09
2023-03-29T22:35:10.771Z,6.09
2023-03-29T22:37:41.966Z,6.10
2023-03-29T22:40:10.247Z,6.09
2023-03-29T22:42:36.934Z,6.12
2023-03-29T22:45:03.942Z,6.14
2023-03-29T22:47:30.716Z,6.14
2023-03-29T22:49:57.348Z,6.14
2023-03-29T22:52:23.885Z,6.18
2023-03-29T22:54:50.559Z,6.22
2023-03-29T22:57:17.132Z,6.24
2023-03-29T22:59:43.818Z,6.25
2023-03-29T23:02:10.551Z,6.25
2023-03-29T23:04:38.743Z,6.23
2023-03-29T23:07:06.506Z,6.22
2023-03-29T23:09:33.110Z,6.20
2023-03-29T23:12:01.123Z,6.22
2023-03-29T23:14:27.901Z,6.21
2023-03-29T23:16:54.480Z,6.19
2023-03-29T23:19:21.130Z,6.17
2023-03-29T23:21:47.680Z,6.15
2023-03-29T23:24:18.832Z,6.14
2023-03-29T23:26:45.881Z,6.11
2023-03-29T23:29:13.685Z,6.11
2023-03-29T23:31:40.324Z,6.09
2023-03-29T23:34:06.927Z,6.08
2023-03-29T23:36:33.539Z,6.09
2023-03-29T23:39:00.187Z,6.07
2023-03-29T23:41:30.704Z,6.10
2023-03-29T23:43:57.846Z,6.09
2023-03-29T23:46:24.745Z,6.06
2023-03-29T23:48:51.730Z,6.05
2023-03-29T23:51:22.724Z,6.06
2023-03-29T23:53:49.784Z,6.02
2023-03-29T23:56:16.344Z,6.00
2023-03-29T23:58:42.920Z,6.01
